Welcome to Northern Hawkes Bay. New Zealand.
PWS Header
      nz Flag



Hit Counter


W3C Valid W3C Valid logo


    Wairoa

Select any of the Stations below to visit their websites.










Historic Data from Weather Underground
Select the location of interest below. Wairoa is the default. Please have patience, this Data is slow to load in.
Northern Hawkes Bay Historical Data
Daily Summary for March 29, 2017 Units:  English    Metric   Both
« Previous Day
Next Day »
Daily Weekly Monthly Yearly Custom
  High: Low: Average:
Temperature: 82.8 °F 62.2 °F 70.7 °F
Dew Point: 64.8 °F 57.9 °F 60.8 °F
Humidity: 92% 51% 72%
Wind Speed: 13.6mph 0mph 4mph
Wind Gust: 19mph - -
Wind- - South
Pressure: 30 in 29.8 in -
Precipitation: 0.01 in    
Historical Graphs
 
 
Tabular Data for March 29, 2017
Time Temperature Dew Point Pressure Wind Wind Speed Wind Gust Humidity Rainfall Rate (Hourly) solar
00:00 74.1 °F 60.3 °F 29.9 in NNE 2.2 mph 9.8 mph 62% 0 in 83 W/m2
00:05 73.9 °F 61 °F 29.8 in NE 3.8 mph 9.8 mph 64% 0 in 70 W/m2
00:11 73.4 °F 60.4 °F 29.8 in NNE 3.8 mph 9.2 mph 64% 0 in 59 W/m2
00:17 73 °F 59.4 °F 29.8 in North 11.4 mph 15.2 mph 62% 0 in 52 W/m2
00:23 72.7 °F 59.4 °F 29.9 in North 9.8 mph 15.2 mph 63% 0 in 43 W/m2
00:30 72.3 °F 59.5 °F 29.9 in North 9.2 mph 14.5 mph 64% 0 in 33 W/m2
00:35 72.1 °F 58.8 °F 29.9 in North 4.5 mph 14.5 mph 63% 0 in 33 W/m2
00:41 72 °F 58.6 °F 29.9 in NNE 6.9 mph 16.8 mph 63% 0 in 29 W/m2
00:47 72 °F 58.3 °F 29.9 in North 8.3 mph 16.8 mph 62% 0 in 23 W/m2
00:53 72 °F 58.3 °F 29.9 in North 7.6 mph 16.8 mph 62% 0 in 18 W/m2
01:00 72 °F 58.3 °F 29.9 in NNE 8.3 mph 14.5 mph 62% 0 in 14 W/m2
01:05 72 °F 58.3 °F 29.9 in North 13.6 mph 17.4 mph 62% 0 in 13 W/m2
01:11 71.8 °F 58.1 °F 29.9 in NNE 7.6 mph 17.4 mph 62% 0 in 10 W/m2
01:17 71.6 °F 57.9 °F 29.9 in NNE 5.4 mph 14.5 mph 62% 0 in 7 W/m2
01:23 71.2 °F 58.5 °F 29.9 in North 8.3 mph 13 mph 64% 0 in 5 W/m2
01:30 71.2 °F 58.5 °F 29.9 in North 6 mph 13 mph 64% 0 in 4 W/m2
01:35 70.7 °F 58.8 °F 29.9 in North 6 mph 13.6 mph 66% 0 in 3 W/m2
01:41 70 °F 59.4 °F 29.9 in North 5.4 mph 12.1 mph 69% 0 in 2 W/m2
01:47 69.3 °F 59.9 °F 29.9 in North 7.6 mph 14.5 mph 72% 0 in 2 W/m2
01:53 68.9 °F 60.3 °F 29.9 in North 4.5 mph 15.2 mph 74% 0 in 1 W/m2
02:00 68.4 °F 60.4 °F 29.9 in NNE 3.1 mph 9.2 mph 76% 0.01 in 0 W/m2
02:05 67.8 °F 60.6 °F 29.9 in NNE 3.8 mph 9.2 mph 78% 0.02 in 0 W/m2
02:11 67.1 °F 61.2 °F 29.9 in NE 3.8 mph 9.2 mph 81% 0.04 in 0 W/m2
02:17 66.6 °F 61.5 °F 29.9 in NE 3.1 mph 9.2 mph 84% 0.04 in 0 W/m2
02:23 66.4 °F 61.3 °F 29.9 in NE 2.2 mph 9.2 mph 84% 0.04 in 0 W/m2
02:30 66 °F 61.7 °F 29.9 in NE 3.1 mph 7.6 mph 86% 0.04 in 0 W/m2
02:35 65.8 °F 61.5 °F 29.9 in NNE 2.2 mph 6.9 mph 86% 0.05 in 0 W/m2
02:41 65.8 °F 61.5 °F 29.9 in Calm   8.3 mph 86% 0.05 in 0 W/m2
02:47 65.7 °F 61.7 °F 29.9 in NNE 1.6 mph 3.8 mph 87% 0.05 in 0 W/m2
02:53 65.5 °F 61.5 °F 29.9 in NE 0.7 mph 5.4 mph 87% 0.04 in 0 W/m2
03:00 65.7 °F 61.7 °F 29.9 in Calm   5.4 mph 87% 0.04 in 0 W/m2
03:05 65.7 °F 61.7 °F 29.9 in Calm   4.5 mph 87% 0.02 in 0 W/m2
03:11 65.8 °F 61.5 °F 29.9 in NE 1.6 mph 5.4 mph 86% 0.01 in 0 W/m2
03:17 66 °F 61.7 °F 29.9 in Calm   5.4 mph 86% 0.01 in 0 W/m2
03:23 66.4 °F 61.3 °F 29.9 in Calm   3.8 mph 84% 0.01 in 0 W/m2
03:30 66.6 °F 61.5 °F 29.9 in Calm   4.5 mph 84% 0.01 in 0 W/m2
03:35 66.7 °F 61.3 °F 29.9 in NNE 2.2 mph 6 mph 83% 0 in 0 W/m2
03:41 67.3 °F 61 °F 29.9 in North 3.8 mph 12.1 mph 80% 0 in 0 W/m2
03:47 68 °F 60.4 °F 29.9 in North 2.2 mph 12.1 mph 77% 0 in 0 W/m2
03:53 68.2 °F 60.4 °F 29.9 in NNE 3.8 mph 9.2 mph 76% 0 in 0 W/m2
04:00 68.2 °F 60.4 °F 29.9 in North 3.8 mph 9.2 mph 76% 0 in 0 W/m2
04:05 68.4 °F 60.3 °F 29.9 in North 3.8 mph 9.2 mph 75% 0 in 0 W/m2
04:11 68.2 °F 60.4 °F 29.9 in North 2.2 mph 9.2 mph 76% 0 in 0 W/m2
04:17 67.6 °F 61 °F 29.9 in NNE 5.4 mph 9.8 mph 79% 0.01 in 0 W/m2
04:23 67.5 °F 60.6 °F 29.9 in NNE 5.4 mph 11.4 mph 79% 0.01 in 0 W/m2
04:30 67.6 °F 60.6 °F 29.9 in NNE 6 mph 13.6 mph 78% 0.01 in 0 W/m2
04:35 68 °F 60.3 °F 29.9 in North 9.2 mph 13.6 mph 76% 0.01 in 0 W/m2
04:41 68.2 °F 60.1 °F 29.9 in North 4.5 mph 13.6 mph 75% 0.01 in 0 W/m2
04:47 68.2 °F 59.5 °F 29.9 in North 3.8 mph 9.8 mph 74% 0.01 in 0 W/m2
04:53 68.7 °F 59.4 °F 29.9 in North 6 mph 16.8 mph 72% 0.01 in 0 W/m2
05:00 69.1 °F 58.8 °F 29.9 in NNE 5.4 mph 19 mph 70% 0.01 in 0 W/m2
05:05 69.3 °F 59.2 °F 29.9 in NNE 5.4 mph 15.2 mph 70% 0.01 in 0 W/m2
05:11 69.3 °F 59.2 °F 29.9 in NNE 4.5 mph 13.6 mph 70% 0.01 in 0 W/m2
05:17 69.3 °F 59.2 °F 29.9 in NE 4.5 mph 15.2 mph 70% 0 in 0 W/m2
05:23 69.3 °F 59.2 °F 29.9 in NE 5.4 mph 15.2 mph 70% 0 in 0 W/m2
05:30 69.4 °F 58.8 °F 29.9 in ENE 4.5 mph 11.4 mph 69% 0 in 0 W/m2
05:35 69.4 °F 58.8 °F 29.9 in NE 6 mph 12.1 mph 69% 0 in 0 W/m2
05:41 69.4 °F 58.8 °F 29.9 in ENE 3.8 mph 13 mph 69% 0 in 0 W/m2
05:47 69.3 °F 58.6 °F 29.9 in ENE 5.4 mph 12.1 mph 69% 0 in 0 W/m2
05:53 69.3 °F 59.2 °F 29.9 in NNE 3.8 mph 9.8 mph 70% 0 in 0 W/m2
06:00 68.5 °F 59.5 °F 29.9 in NNE 7.6 mph 12.1 mph 73% 0.01 in 0 W/m2
06:05 68.2 °F 59.5 °F 29.9 in NE 6 mph 14.5 mph 74% 0.01 in 0 W/m2
06:11 68 °F 59.7 °F 29.9 in NE 6 mph 14.5 mph 75% 0.01 in 0 W/m2
06:17 67.8 °F 60.1 °F 29.9 in NE 6.9 mph 13 mph 76% 0.01 in 0 W/m2
06:23 68 °F 59.7 °F 29.9 in NNE 5.4 mph 13 mph 75% 0.01 in 0 W/m2
06:30 67.3 °F 59.7 °F 29.9 in NNE 6 mph 14.5 mph 77% 0.02 in 0 W/m2
06:35 66.9 °F 60.3 °F 29.9 in NNE 3.1 mph 14.5 mph 79% 0.02 in 0 W/m2
06:41 66.6 °F 60.3 °F 29.9 in NNE 1.6 mph 10.7 mph 80% 0.02 in 0 W/m2
06:47 66.4 °F 60.4 °F 29.9 in NNE 3.8 mph 9.8 mph 81% 0.02 in 0 W/m2
06:53 66.6 °F 59.9 °F 29.9 in NNE 1.6 mph 11.4 mph 79% 0.02 in 0 W/m2
07:00 66.9 °F 59.9 °F 29.9 in NNE 3.8 mph 11.4 mph 78% 0.01 in 0 W/m2
07:05 67.1 °F 59.7 °F 29.9 in NNE 5.4 mph 12.1 mph 77% 0.01 in 0 W/m2
07:11 67.3 °F 59.7 °F 29.9 in NNE 4.5 mph 12.1 mph 77% 0.01 in 0 W/m2
07:17 67.5 °F 59.7 °F 29.9 in NNE 6.9 mph 11.4 mph 76% 0.01 in 0 W/m2
07:23 67.8 °F 59.5 °F 29.9 in North 7.6 mph 12.1 mph 75% 0 in 0 W/m2
07:30 68.2 °F 59.2 °F 29.9 in North 2.2 mph 12.1 mph 73% 0 in 0 W/m2
07:35 68 °F 59 °F 29.9 in North 5.4 mph 11.4 mph 73% 0 in 0 W/m2
07:41 68 °F 59.4 °F 29.9 in Calm   9.2 mph 74% 0 in 0 W/m2
07:47 67.6 °F 59.7 °F 29.9 in North 2.2 mph 5.4 mph 76% 0 in 0 W/m2
07:53 67.5 °F 59.7 °F 29.9 in North 3.8 mph 9.2 mph 76% 0 in 0 W/m2
08:00 67.5 °F 59.7 °F 29.9 in NNE 2.2 mph 9.2 mph 76% 0 in 0 W/m2
08:05 67.1 °F 59.7 °F 29.9 in North 1.6 mph 6.9 mph 77% 0 in 0 W/m2
08:11 66.7 °F 59.7 °F 29.9 in Calm   4.5 mph 78% 0 in 0 W/m2
08:17 66.6 °F 59.5 °F 29.9 in Calm   4.5 mph 78% 0 in 0 W/m2
08:23 66.4 °F 59.7 °F 29.9 in North 3.1 mph 6.9 mph 79% 0 in 0 W/m2
08:30 66.7 °F 59.7 °F 29.9 in North 8.3 mph 12.1 mph 78% 0 in 0 W/m2
08:35 67.3 °F 59.5 °F 29.9 in North 6 mph 12.1 mph 76% 0 in 0 W/m2
08:41 67.5 °F 59.7 °F 29.9 in NNE 3.8 mph 9.2 mph 76% 0 in 0 W/m2
08:47 67.6 °F 59.7 °F 29.9 in North 6 mph 9.8 mph 76% 0 in 0 W/m2
08:53 67.8 °F 60.1 °F 29.9 in North 3.1 mph 9.2 mph 76% 0 in 0 W/m2
09:00 67.6 °F 60.3 °F 29.9 in North 3.1 mph 8.3 mph 77% 0 in 0 W/m2
09:05 67.5 °F 60.1 °F 29.9 in North 2.2 mph 8.3 mph 77% 0 in 0 W/m2
09:11 67.5 °F 60.1 °F 29.9 in North 4.5 mph 8.3 mph 77% 0 in 0 W/m2
09:17 67.6 °F 60.3 °F 29.9 in North 6 mph 9.8 mph 77% 0 in 0 W/m2
09:23 68 °F 59.7 °F 29.9 in NNE 7.6 mph 13 mph 75% 0 in 0 W/m2
09:29 68.2 °F 59.5 °F 29.9 in NNE 3.8 mph 13.6 mph 74% 0 in 0 W/m2
09:35 68.2 °F 59.5 °F 29.9 in North 4.5 mph 13.6 mph 74% 0 in 0 W/m2
09:41 68 °F 59.4 °F 29.9 in NNE 3.8 mph 11.4 mph 74% 0 in 0 W/m2
09:47 68 °F 59.7 °F 29.9 in NNE 3.8 mph 11.4 mph 75% 0 in 0 W/m2
09:53 67.8 °F 60.1 °F 29.9 in NNE 4.5 mph 10.7 mph 76% 0 in 0 W/m2
10:00 67.5 °F 59.7 °F 29.9 in North 6 mph 10.7 mph 76% 0 in 0 W/m2
10:05 67.6 °F 59.7 °F 29.9 in North 5.4 mph 10.7 mph 76% 0 in 0 W/m2
10:11 67.3 °F 59.7 °F 29.9 in North 5.4 mph 10.7 mph 77% 0 in 0 W/m2
10:17 67.1 °F 59.7 °F 29.9 in North 8.3 mph 13 mph 77% 0 in 0 W/m2
10:23 67.1 °F 59.7 °F 29.9 in North 3.8 mph 13 mph 77% 0 in 0 W/m2
10:30 66.6 °F 59.5 °F 29.9 in North 3.1 mph 9.8 mph 78% 0 in 0 W/m2
10:35 66.4 °F 59.7 °F 29.9 in North 3.1 mph 6 mph 79% 0 in 0 W/m2
10:41 66.6 °F 59.9 °F 29.9 in NNW 3.1 mph 7.6 mph 79% 0 in 0 W/m2
10:47 66.4 °F 59.7 °F 29.9 in North 3.1 mph 7.6 mph 79% 0 in 0 W/m2
10:53 66.2 °F 59.5 °F 29.9 in North 3.1 mph 7.6 mph 79% 0 in 0 W/m2
11:00 66.2 °F 59.9 °F 29.9 in NNE 5.4 mph 9.2 mph 80% 0 in 0 W/m2
11:05 66.4 °F 59.7 °F 29.9 in North 3.8 mph 9.2 mph 79% 0 in 0 W/m2
11:11 66.4 °F 59.7 °F 29.9 in North 4.5 mph 7.6 mph 79% 0 in 0 W/m2
11:17 66.4 °F 59.7 °F 29.9 in North 3.8 mph 7.6 mph 79% 0 in 0 W/m2
11:23 66.9 °F 59.9 °F 29.9 in North 3.1 mph 7.6 mph 78% 0 in 0 W/m2
11:30 66.9 °F 60.3 °F 29.9 in NNW 3.8 mph 7.6 mph 79% 0 in 0 W/m2
11:35 66.4 °F 60.4 °F 29.9 in North 1.6 mph 7.6 mph 81% 0.01 in 0 W/m2
11:41 65.8 °F 61.2 °F 29.9 in North 1.6 mph 6.9 mph 85% 0.01 in 0 W/m2
11:47 65.8 °F 61.2 °F 29.9 in North 3.8 mph 7.6 mph 85% 0.01 in 0 W/m2
11:53 66.2 °F 61 °F 29.9 in North 2.2 mph 9.8 mph 83% 0.01 in 0 W/m2
12:00 66.4 °F 60.6 °F 29.9 in North 4.5 mph 9.8 mph 82% 0.01 in 0 W/m2
12:05 66.4 °F 60.4 °F 29.9 in North 3.8 mph 8.3 mph 81% 0.01 in 0 W/m2
12:11 66.4 °F 60.4 °F 29.9 in North 3.8 mph 9.2 mph 81% 0.01 in 0 W/m2
12:17 66.7 °F 60.4 °F 29.9 in North 2.2 mph 10.7 mph 80% 0.01 in 0 W/m2
12:23 66.7 °F 60.4 °F 29.9 in North 7.6 mph 10.7 mph 80% 0.01 in 0 W/m2
12:31 66.7 °F 60.1 °F 29.9 in North 6 mph 10.7 mph 79% 0 in 0 W/m2
12:37 66.7 °F 60.1 °F 29.9 in North 2.2 mph 9.2 mph 79% 0 in 0 W/m2
12:43 66.4 °F 60.1 °F 29.9 in NNW 3.8 mph 6.9 mph 80% 0 in 0 W/m2
12:49 66.4 °F 60.1 °F 29.9 in North 7.6 mph 9.8 mph 80% 0 in 0 W/m2
12:55 66.7 °F 60.1 °F 29.9 in North 4.5 mph 9.8 mph 79% 0 in 0 W/m2
13:01 66.4 °F 60.1 °F 29.9 in Calm   9.2 mph 80% 0 in 0 W/m2
13:07 65.7 °F 60.1 °F 29.9 in NW 2.2 mph 4.5 mph 82% 0 in 0 W/m2
13:13 65.3 °F 60.4 °F 29.9 in NW 1.6 mph 4.5 mph 84% 0 in 0 W/m2
13:19 64.6 °F 60.1 °F 29.9 in Calm   4.5 mph 85% 0 in 0 W/m2
13:25 64.2 °F 59.4 °F 29.9 in Calm     84% 0 in 0 W/m2
13:31 63.9 °F 59.4 °F 29.9 in Calm     85% 0 in 0 W/m2
13:37 63.7 °F 59.2 °F 30 in Calm     85% 0 in 0 W/m2
13:43 63.3 °F 59.2 °F 29.9 in Calm     86% 0 in 0 W/m2
13:50 63.1 °F 59.2 °F 30 in Calm     87% 0 in 0 W/m2
13:55 63 °F 59.4 °F 30 in Calm     88% 0 in 0 W/m2
14:01 62.8 °F 59.2 °F 30 in Calm     88% 0 in 0 W/m2
14:07 62.4 °F 59.2 °F 30 in Calm     89% 0 in 0 W/m2
14:13 62.2 °F 59.4 °F 30 in Calm     90% 0 in 0 W/m2
14:19 62.4 °F 59.7 °F 30 in Calm     91% 0 in 1 W/m2
14:25 62.2 °F 59.5 °F 30 in Calm   2.2 mph 91% 0 in 4 W/m2
14:31 62.4 °F 60.1 °F 30 in NW 0.7 mph 3.8 mph 92% 0 in 9 W/m2
14:37 62.4 °F 60.1 °F 30 in Calm   3.1 mph 92% 0 in 14 W/m2
14:43 62.6 °F 60.1 °F 30 in Calm   3.1 mph 91% 0 in 21 W/m2
14:50 62.8 °F 60.1 °F 30 in North 2.2 mph 4.5 mph 91% 0 in 28 W/m2
14:55 63.1 °F 60.3 °F 30 in North 3.1 mph 6.9 mph 90% 0 in 40 W/m2
15:01 63.9 °F 60.6 °F 30 in North 6 mph 8.3 mph 89% 0 in 54 W/m2
15:07 65.1 °F 60.8 °F 30 in North 5.4 mph 8.3 mph 86% 0 in 70 W/m2
15:13 66 °F 61.3 °F 30 in North 3.8 mph 7.6 mph 85% 0 in 98 W/m2
15:19 67.3 °F 61 °F 30 in North 1.6 mph 8.3 mph 80% 0 in 181 W/m2
15:25 68.4 °F 61.3 °F 30 in North 4.5 mph 8.3 mph 78% 0 in 83 W/m2
15:31 68.2 °F 60.6 °F 30 in North 4.5 mph 7.6 mph 77% 0 in 82 W/m2
15:37 68.2 °F 60.6 °F 30 in North 4.5 mph 8.3 mph 77% 0 in 88 W/m2
15:43 68.5 °F 61.2 °F 30 in NNW 0.7 mph 8.3 mph 77% 0 in 102 W/m2
15:49 68.9 °F 61 °F 30 in NNW 2.2 mph 7.6 mph 76% 0 in 101 W/m2
15:55 69.1 °F 61.2 °F 30 in NNW 0.7 mph 6 mph 76% 0 in 96 W/m2
16:01 69.1 °F 61.2 °F 30 in NNW 3.8 mph 6.9 mph 76% 0 in 109 W/m2
16:07 68.5 °F 61.3 °F 30 in NNW 3.8 mph 6.9 mph 78% 0 in 109 W/m2
16:13 68.7 °F 61.5 °F 30 in North 1.6 mph 6 mph 78% 0 in 119 W/m2
16:19 69.3 °F 61.3 °F 30 in Calm   6 mph 76% 0 in 105 W/m2
16:25 69.3 °F 61.9 °F 30 in NNW 2.2 mph 5.4 mph 77% 0 in 113 W/m2
16:31 69.4 °F 61.9 °F 30 in Calm   5.4 mph 77% 0 in 114 W/m2
16:37 69.8 °F 61.2 °F 30 in NNW 3.8 mph 6 mph 74% 0 in 164 W/m2
16:43 70.9 °F 61.9 °F 30 in North 0.7 mph 6.9 mph 73% 0 in 195 W/m2
16:49 71.6 °F 62.1 °F 30 in North 3.1 mph 6.9 mph 72% 0 in 266 W/m2
16:55 73.2 °F 62.1 °F 30 in North 5.4 mph 9.2 mph 68% 0 in 454 W/m2
17:01 74.3 °F 62.2 °F 30 in North 7.6 mph 11.4 mph 66% 0 in 321 W/m2
17:07 73.8 °F 62.2 °F 30 in North 5.4 mph 11.4 mph 67% 0 in 283 W/m2
17:13 73.6 °F 61.5 °F 30 in North 3.8 mph 9.8 mph 66% 0 in 203 W/m2
17:19 73.6 °F 62.1 °F 30 in North 3.8 mph 9.2 mph 67% 0 in 233 W/m2
17:25 73.8 °F 62.6 °F 30 in North 6 mph 9.8 mph 68% 0 in 204 W/m2
17:31 73.9 °F 62.2 °F 30 in North 2.2 mph 9.8 mph 67% 0 in 326 W/m2
17:37 74.5 °F 62.8 °F 30 in North 1.6 mph 8.3 mph 67% 0 in 341 W/m2
17:43 76.5 °F 63.9 °F 30 in North 2.2 mph 8.3 mph 65% 0 in 287 W/m2
17:49 76.3 °F 62.2 °F 30 in North 3.8 mph 9.2 mph 62% 0 in 372 W/m2
17:55 77.4 °F 63 °F 30 in NNW 3.1 mph 9.2 mph 61% 0 in 308 W/m2
18:01 78.4 °F 63.3 °F 30 in NW 4.5 mph 7.6 mph 60% 0 in 128 W/m2
18:07 78.4 °F 62.4 °F 30 in NNW 1.6 mph 9.2 mph 58% 0 in 115 W/m2
18:13 78.4 °F 61.5 °F 30 in NNW 6.9 mph 10.7 mph 56% 0 in 113 W/m2
18:19 78.4 °F 63 °F 30 in NW 6 mph 10.7 mph 59% 0 in 117 W/m2
18:25 78.4 °F 62.4 °F 30 in NNW 3.8 mph 9.2 mph 58% 0 in 170 W/m2
18:31 79 °F 61.5 °F 30 in NNW 6 mph 10.7 mph 55% 0 in 244 W/m2
18:37 78.3 °F 61.9 °F 30 in NNW 6 mph 12.1 mph 57% 0 in 394 W/m2
18:43 77.9 °F 62.1 °F 30 in North 6 mph 12.1 mph 58% 0 in 299 W/m2
18:49 77.7 °F 62.2 °F 30 in NNE 6 mph 9.2 mph 59% 0 in 582 W/m2
18:55 77 °F 61.2 °F 30 in NNE 3.1 mph 9.8 mph 58% 0 in 167 W/m2
19:01 76.3 °F 62.2 °F 30 in North 6 mph 9.8 mph 62% 0 in 201 W/m2
19:07 76.1 °F 62.6 °F 30 in North 4.5 mph 9.8 mph 63% 0 in 361 W/m2
19:13 77.4 °F 63 °F 30 in North 3.8 mph 10.7 mph 61% 0 in 509 W/m2
19:19 78.8 °F 62.8 °F 30 in NNE 6.9 mph 10.7 mph 58% 0 in 763 W/m2
19:25 79 °F 62.1 °F 30 in North 6.9 mph 13.6 mph 56% 0 in 670 W/m2
19:31 79 °F 62.1 °F 30 in North 6.9 mph 13.6 mph 56% 0 in 465 W/m2
19:37 77.9 °F 61 °F 30 in NNW 6.9 mph 13.6 mph 56% 0 in 243 W/m2
19:43 76.5 °F 61.5 °F 30 in NW 5.4 mph 13 mph 60% 0 in 221 W/m2
19:49 76.6 °F 62.2 °F 30 in NNW 3.1 mph 13 mph 61% 0 in 210 W/m2
19:55 76.8 °F 62.4 °F 30 in NNW 6.9 mph 11.4 mph 61% 0 in 227 W/m2
20:01 76.8 °F 63.3 °F 30 in NW 4.5 mph 11.4 mph 63% 0 in 381 W/m2
20:07 77.5 °F 62.1 °F 30 in NW 5.4 mph 9.8 mph 59% 0 in 348 W/m2
20:13 77.4 °F 62.1 °F 30 in NW 3.1 mph 11.4 mph 59% 0 in 364 W/m2
20:19 77.7 °F 62.2 °F 30 in NW 6.9 mph 11.4 mph 59% 0 in 342 W/m2
20:25 77.5 °F 62.1 °F 30 in NNW 7.6 mph 10.7 mph 59% 0 in 323 W/m2
20:31 77.7 °F 62.2 °F 30 in NNW 5.4 mph 9.8 mph 59% 0 in 369 W/m2
20:37 78.1 °F 62.1 °F 30 in North 5.4 mph 9.8 mph 58% 0 in 271 W/m2
20:43 77.5 °F 61.5 °F 30 in North 4.5 mph 11.4 mph 58% 0 in 368 W/m2
20:49 78.4 °F 63 °F 30 in North 4.5 mph 11.4 mph 59% 0 in 644 W/m2
20:55 79.2 °F 62.8 °F 30 in NW 3.8 mph 9.2 mph 57% 0 in 573 W/m2
21:01 79.7 °F 62.1 °F 30 in NNW 3.1 mph 9.2 mph 55% 0 in 301 W/m2
21:07 78.6 °F 62.2 °F 30 in North 3.1 mph 7.6 mph 57% 0 in 265 W/m2
21:13 78.4 °F 62.1 °F 30 in North 5.4 mph 8.3 mph 57% 0 in 269 W/m2
21:19 78.3 °F 62.2 °F 30 in NNW 3.1 mph 8.3 mph 58% 0 in 321 W/m2
21:25 78.6 °F 62.2 °F 30 in NNW 3.1 mph 7.6 mph 57% 0 in 318 W/m2
21:31 78.4 °F 62.1 °F 30 in NNW 7.6 mph 10.7 mph 57% 0 in 314 W/m2
21:37 79 °F 62.1 °F 30 in NNW 6.9 mph 12.1 mph 56% 0 in 671 W/m2
21:43 81.3 °F 63.1 °F 30 in North 4.5 mph 10.7 mph 54% 0 in 744 W/m2
21:49 82.4 °F 62.4 °F 30 in North 3.1 mph 10.7 mph 51% 0 in 764 W/m2
21:55 82.4 °F 63.7 °F 30 in North 3.1 mph 10.7 mph 53% 0 in 232 W/m2
22:02 81.1 °F 62.4 °F 30 in North 4.5 mph 9.2 mph 53% 0 in 565 W/m2
22:07 80.4 °F 61.9 °F 30 in NNW 5.4 mph 10.7 mph 53% 0 in 248 W/m2
22:13 80.4 °F 62.2 °F 30 in NNW 4.5 mph 10.7 mph 54% 0 in 222 W/m2
22:19 80.4 °F 61.9 °F 30 in NNW 7.6 mph 12.1 mph 53% 0 in 156 W/m2
22:25 79.5 °F 62.1 °F 30 in NNW 5.4 mph 13.6 mph 55% 0 in 209 W/m2
22:31 80.1 °F 63.5 °F 30 in NNW 6.9 mph 14.5 mph 57% 0 in 245 W/m2
22:37 80.2 °F 62.8 °F 30 in North 9.2 mph 14.5 mph 55% 0 in 259 W/m2
22:43 80.4 °F 62.8 °F 30 in North 6 mph 13.6 mph 55% 0 in 237 W/m2
22:49 79.9 °F 62.2 °F 30 in North 5.4 mph 12.1 mph 55% 0 in 178 W/m2
22:55 81.9 °F 62.6 °F 30 in NNW 6.9 mph 11.4 mph 52% 0 in 155 W/m2
23:01 80.8 °F 61.5 °F 30 in NNW 2.2 mph 11.4 mph 52% 0 in 173 W/m2
23:07 81.5 °F 62.2 °F 30 in North 3.1 mph 11.4 mph 52% 0 in 415 W/m2
23:13 81.9 °F 62.1 °F 30 in North 4.5 mph 10.7 mph 51% 0 in 119 W/m2
23:19 79 °F 61 °F 30 in North 1.6 mph 8.3 mph 54% 0 in 115 W/m2
23:25 80.4 °F 62.2 °F 30 in NNW 1.6 mph 8.3 mph 54% 0 in 438 W/m2
23:31 80.8 °F 61.5 °F 30 in NW 0.7 mph 6 mph 52% 0 in 176 W/m2
23:37 81.1 °F 63 °F 30 in Calm   5.4 mph 54% 0 in 106 W/m2
23:43 82.8 °F 63.3 °F 30 in WSW 0.7 mph 4.5 mph 52% 0 in 107 W/m2
23:49 79.9 °F 63.3 °F 30 in SW 3.1 mph 4.5 mph 57% 0 in 146 W/m2
23:55 77.9 °F 64.8 °F 30 in SW 3.1 mph 6.9 mph 64% 0 in 87 W/m2
Northern Hawkes Bay. New Zealand Historic Data
Compliments of Weather Underground - 2 mb